Time;durP1;ratioP1;P1;durP2;ratioP2;P2;SDS_P1;SDS_P2;PMS_P1;PMS_P2;Temp;Humidity;BMP_temperature;BMP_pressure;BME280_temperature;BME280_humidity;BME280_pressure;Samples;Min_cycle;Max_cycle;Signal;HPM_P1;HPM_P2
2021/09/18 00:01:04;;;;;;;0.75;0.65;;;;;;;;;;5093849;28;20032;-69
2021/09/18 00:03:33;;;;;;;2.13;0.70;;;;;;;;;;5093377;28;20484;-71
2021/09/18 00:05:59;;;;;;;1.17;0.60;;;;;;;;;;5093493;28;20068;-68
2021/09/18 00:08:25;;;;;;;1.27;0.60;;;;;;;;;;5093576;28;20028;-69
2021/09/18 00:10:51;;;;;;;0.95;0.60;;;;;;;;;;5092509;28;20039;-68
2021/09/18 00:13:17;;;;;;;1.00;0.65;;;;;;;;;;5093274;28;20056;-69
2021/09/18 00:15:43;;;;;;;0.75;0.65;;;;;;;;;;5093450;28;20035;-71
2021/09/18 00:18:09;;;;;;;0.80;0.70;;;;;;;;;;5093616;28;20042;-68
2021/09/18 00:20:35;;;;;;;4.20;0.80;;;;;;;;;;5093787;28;20047;-68
2021/09/18 00:23:01;;;;;;;2.20;0.70;;;;;;;;;;5093116;28;20039;-68
2021/09/18 00:25:27;;;;;;;2.65;0.85;;;;;;;;;;5093501;28;20042;-69
2021/09/18 00:27:53;;;;;;;1.23;0.90;;;;;;;;;;5093057;28;20111;-69
2021/09/18 00:30:20;;;;;;;2.38;0.88;;;;;;;;;;5093043;28;20039;-68
2021/09/18 00:32:46;;;;;;;2.75;0.77;;;;;;;;;;5093375;28;20036;-70
2021/09/18 00:35:12;;;;;;;1.77;0.90;;;;;;;;;;5093224;28;20028;-68
2021/09/18 00:37:38;;;;;;;4.47;1.65;;;;;;;;;;5093103;28;20043;-68
2021/09/18 00:40:05;;;;;;;1.35;0.90;;;;;;;;;;5093011;28;20035;-71
2021/09/18 00:42:31;;;;;;;1.00;0.73;;;;;;;;;;5093112;28;20044;-69
2021/09/18 00:44:57;;;;;;;3.05;0.65;;;;;;;;;;5093028;28;20043;-68
2021/09/18 00:47:23;;;;;;;1.30;0.80;;;;;;;;;;5093374;28;20121;-72
2021/09/18 00:49:49;;;;;;;2.33;0.95;;;;;;;;;;5093029;28;20032;-68
2021/09/18 00:52:19;;;;;;;2.13;1.00;;;;;;;;;;5093012;28;20035;-69
2021/09/18 00:54:48;;;;;;;3.42;0.95;;;;;;;;;;5093073;28;20074;-68
2021/09/18 00:57:14;;;;;;;2.15;1.15;;;;;;;;;;5093050;28;20106;-69
2021/09/18 00:59:40;;;;;;;1.70;0.80;;;;;;;;;;5089549;28;20024;-69
2021/09/18 01:02:06;;;;;;;0.85;0.63;;;;;;;;;;5089891;28;20040;-69
2021/09/18 01:04:32;;;;;;;2.20;0.80;;;;;;;;;;5091215;28;20029;-68
2021/09/18 01:06:58;;;;;;;3.53;0.73;;;;;;;;;;5092564;28;20078;-68
2021/09/18 01:09:25;;;;;;;0.77;0.70;;;;;;;;;;5092843;28;20037;-69
2021/09/18 01:11:51;;;;;;;1.35;0.80;;;;;;;;;;5092962;28;20115;-68
2021/09/18 01:14:17;;;;;;;4.50;0.80;;;;;;;;;;5092196;28;20090;-69
2021/09/18 01:16:44;;;;;;;1.90;0.75;;;;;;;;;;5092735;28;20127;-71
2021/09/18 01:19:10;;;;;;;1.05;0.77;;;;;;;;;;5092966;28;20035;-69
2021/09/18 01:21:36;;;;;;;2.47;0.90;;;;;;;;;;5094213;28;20040;-68
2021/09/18 01:24:02;;;;;;;1.65;0.95;;;;;;;;;;5096561;28;20047;-68
2021/09/18 01:26:32;;;;;;;0.80;0.70;;;;;;;;;;5096508;28;20028;-71
2021/09/18 01:28:58;;;;;;;2.17;0.90;;;;;;;;;;5096072;28;20484;-69
2021/09/18 01:31:25;;;;;;;3.28;1.00;;;;;;;;;;5096733;28;20032;-69
2021/09/18 01:33:51;;;;;;;2.40;0.80;;;;;;;;;;5096702;28;20043;-69
2021/09/18 01:36:17;;;;;;;3.58;1.00;;;;;;;;;;5096272;28;20414;-69
2021/09/18 01:38:43;;;;;;;1.02;0.90;;;;;;;;;;5096698;28;20035;-70
2021/09/18 01:41:09;;;;;;;1.38;0.70;;;;;;;;;;5096341;28;20036;-69
2021/09/18 01:43:35;;;;;;;3.38;0.90;;;;;;;;;;5096124;28;20131;-69
2021/09/18 01:46:01;;;;;;;1.15;0.90;;;;;;;;;;5096171;28;20038;-69
2021/09/18 01:48:27;;;;;;;3.45;1.00;;;;;;;;;;5077888;28;20388;-68
2021/09/18 01:50:59;;;;;;;3.78;0.93;;;;;;;;;;5095963;28;20043;-68
2021/09/18 01:53:27;;;;;;;0.80;0.80;;;;;;;;;;5096511;28;20036;-70
2021/09/18 01:55:53;;;;;;;3.15;0.90;;;;;;;;;;5096575;28;20412;-68
2021/09/18 01:58:20;;;;;;;4.60;0.90;;;;;;;;;;5096008;28;20105;-68
2021/09/18 02:00:48;;;;;;;1.65;0.90;;;;;;;;;;5095773;28;20036;-70
2021/09/18 02:03:14;;;;;;;3.72;1.02;;;;;;;;;;5095903;28;20047;-69
2021/09/18 02:05:40;;;;;;;3.75;0.85;;;;;;;;;;5095903;28;20106;-69
2021/09/18 02:11:00;;;;;;;3.15;1.00;;;;;;;;;;5020802;23;20104;-68
2021/09/18 02:13:26;;;;;;;3.80;1.10;;;;;;;;;;5016423;28;20478;-67
2021/09/18 02:15:52;;;;;;;3.70;0.95;;;;;;;;;;5016426;28;20065;-67
2021/09/18 02:18:18;;;;;;;1.42;0.70;;;;;;;;;;5016191;28;20121;-67
2021/09/18 02:20:45;;;;;;;0.90;0.77;;;;;;;;;;5016698;28;20045;-67
2021/09/18 02:23:11;;;;;;;2.13;0.90;;;;;;;;;;5015791;28;20042;-68
2021/09/18 02:25:38;;;;;;;1.40;0.90;;;;;;;;;;5016426;28;20054;-67
2021/09/18 02:28:04;;;;;;;0.90;0.77;;;;;;;;;;5015940;28;20117;-67
2021/09/18 02:30:31;;;;;;;2.17;1.00;;;;;;;;;;4998182;28;20117;-67
2021/09/18 02:32:58;;;;;;;1.30;1.10;;;;;;;;;;4997637;28;20074;-68
2021/09/18 02:35:26;;;;;;;1.23;0.98;;;;;;;;;;5015985;28;20029;-67
2021/09/18 02:37:53;;;;;;;1.55;0.88;;;;;;;;;;5015753;28;20030;-67
2021/09/18 02:40:19;;;;;;;1.13;0.70;;;;;;;;;;5015768;28;20030;-68
2021/09/18 02:42:46;;;;;;;2.45;0.73;;;;;;;;;;5015713;28;20046;-67
2021/09/18 02:45:13;;;;;;;1.95;1.00;;;;;;;;;;5015407;28;20489;-67
2021/09/18 02:47:39;;;;;;;0.70;0.60;;;;;;;;;;5015781;28;20038;-67
2021/09/18 02:50:06;;;;;;;3.78;0.90;;;;;;;;;;5015554;28;20031;-68
2021/09/18 02:52:32;;;;;;;2.05;0.90;;;;;;;;;;5015723;28;20128;-67
2021/09/18 02:54:58;;;;;;;6.13;0.80;;;;;;;;;;5015682;28;20112;-67
2021/09/18 02:57:24;;;;;;;3.45;1.00;;;;;;;;;;5015251;28;20591;-67
2021/09/18 02:59:51;;;;;;;1.30;0.90;;;;;;;;;;5015478;28;20034;-67
2021/09/18 03:02:17;;;;;;;1.55;0.82;;;;;;;;;;5015280;28;20049;-68
2021/09/18 03:04:43;;;;;;;1.15;0.90;;;;;;;;;;5015537;28;20092;-67
2021/09/18 03:07:09;;;;;;;0.90;0.75;;;;;;;;;;5015234;28;20045;-67
2021/09/18 03:09:35;;;;;;;1.67;1.08;;;;;;;;;;5015056;28;20049;-67
2021/09/18 03:12:01;;;;;;;1.08;0.93;;;;;;;;;;5015222;28;20125;-67
2021/09/18 03:14:27;;;;;;;1.48;0.70;;;;;;;;;;5015231;28;20030;-67
2021/09/18 03:16:53;;;;;;;2.28;0.93;;;;;;;;;;5015295;28;20042;-67
2021/09/18 03:19:19;;;;;;;1.77;0.88;;;;;;;;;;5015039;28;20113;-67
2021/09/18 03:21:45;;;;;;;3.60;0.77;;;;;;;;;;5015096;28;20116;-67
2021/09/18 03:24:13;;;;;;;2.22;0.85;;;;;;;;;;5014904;28;20034;-67
2021/09/18 03:26:40;;;;;;;1.70;0.98;;;;;;;;;;5014854;28;20084;-68
2021/09/18 03:29:06;;;;;;;2.20;0.95;;;;;;;;;;5014828;28;20037;-67
2021/09/18 03:31:32;;;;;;;2.13;0.90;;;;;;;;;;5014957;28;20038;-67
2021/09/18 03:33:58;;;;;;;2.25;1.25;;;;;;;;;;5014928;28;20030;-67
2021/09/18 03:36:24;;;;;;;1.17;0.98;;;;;;;;;;5014767;28;20053;-68
2021/09/18 03:38:51;;;;;;;3.00;0.95;;;;;;;;;;5014525;28;20038;-67
2021/09/18 03:41:17;;;;;;;1.15;0.80;;;;;;;;;;5014726;28;20034;-67
2021/09/18 03:43:43;;;;;;;4.22;0.95;;;;;;;;;;5014445;28;20045;-67
2021/09/18 03:46:09;;;;;;;4.10;0.88;;;;;;;;;;5014731;28;20037;-67
2021/09/18 03:48:35;;;;;;;2.17;0.82;;;;;;;;;;5014387;28;20410;-68
2021/09/18 03:51:01;;;;;;;0.90;0.90;;;;;;;;;;5014445;28;20422;-68
2021/09/18 03:53:28;;;;;;;1.05;0.68;;;;;;;;;;5014471;28;20034;-67
2021/09/18 03:55:54;;;;;;;1.25;0.80;;;;;;;;;;5014499;28;20133;-68
2021/09/18 03:58:20;;;;;;;3.35;0.93;;;;;;;;;;5014532;28;20072;-68
2021/09/18 04:00:46;;;;;;;2.97;1.55;;;;;;;;;;5014548;28;20057;-68
2021/09/18 04:03:12;;;;;;;1.52;0.82;;;;;;;;;;5014341;28;20046;-67
2021/09/18 04:05:38;;;;;;;2.03;1.00;;;;;;;;;;5014303;28;20034;-67
2021/09/18 04:08:05;;;;;;;1.05;0.82;;;;;;;;;;5014244;28;20470;-67
2021/09/18 04:10:32;;;;;;;2.67;1.00;;;;;;;;;;5014008;28;20053;-67
2021/09/18 04:12:58;;;;;;;4.35;1.05;;;;;;;;;;5013952;28;20033;-68
2021/09/18 04:15:24;;;;;;;1.52;0.90;;;;;;;;;;5014043;28;20385;-68
2021/09/18 04:17:50;;;;;;;2.45;0.80;;;;;;;;;;5014155;28;20033;-67
2021/09/18 04:20:16;;;;;;;1.17;0.70;;;;;;;;;;5014029;28;20034;-67
2021/09/18 04:22:42;;;;;;;2.08;0.90;;;;;;;;;;5013872;28;20088;-67
2021/09/18 04:25:08;;;;;;;1.23;0.85;;;;;;;;;;5014302;28;20088;-68
2021/09/18 04:27:34;;;;;;;1.67;0.80;;;;;;;;;;5013900;28;20057;-68
2021/09/18 04:30:00;;;;;;;1.00;0.75;;;;;;;;;;5014068;28;20486;-67
2021/09/18 04:32:26;;;;;;;1.35;1.00;;;;;;;;;;5013855;28;20032;-68
2021/09/18 04:34:52;;;;;;;1.67;0.80;;;;;;;;;;5013760;28;20038;-67
2021/09/18 04:37:18;;;;;;;1.85;0.90;;;;;;;;;;5013922;28;20049;-68
2021/09/18 04:39:44;;;;;;;2.65;0.90;;;;;;;;;;5013774;28;20030;-68
2021/09/18 04:42:10;;;;;;;1.30;0.70;;;;;;;;;;5013790;28;20041;-68
2021/09/18 04:44:36;;;;;;;1.13;1.00;;;;;;;;;;5013620;28;20041;-67
2021/09/18 04:47:02;;;;;;;1.63;0.90;;;;;;;;;;5013683;28;20037;-67
2021/09/18 04:49:28;;;;;;;1.45;0.98;;;;;;;;;;5013787;28;20486;-67
2021/09/18 04:51:54;;;;;;;3.60;0.80;;;;;;;;;;5013809;28;20183;-68
2021/09/18 04:54:20;;;;;;;1.00;0.85;;;;;;;;;;5013900;28;20037;-68
2021/09/18 04:56:46;;;;;;;2.88;1.00;;;;;;;;;;5013287;28;20038;-68
2021/09/18 04:59:12;;;;;;;1.33;0.90;;;;;;;;;;5013522;28;20038;-67
2021/09/18 05:01:39;;;;;;;3.58;1.10;;;;;;;;;;5013567;28;20038;-67
2021/09/18 05:04:05;;;;;;;2.60;1.00;;;;;;;;;;5013464;28;20478;-67
2021/09/18 05:06:31;;;;;;;1.73;1.08;;;;;;;;;;5013585;28;20382;-67
2021/09/18 05:08:57;;;;;;;2.28;1.13;;;;;;;;;;5013127;28;20053;-67
2021/09/18 05:11:23;;;;;;;1.17;0.95;;;;;;;;;;5013514;28;20065;-67
2021/09/18 05:13:49;;;;;;;0.93;0.80;;;;;;;;;;5013576;28;20486;-67
2021/09/18 05:16:15;;;;;;;3.28;1.10;;;;;;;;;;5013430;28;20081;-67
2021/09/18 05:18:41;;;;;;;1.67;1.17;;;;;;;;;;5013481;28;20038;-68
2021/09/18 05:21:07;;;;;;;3.35;1.10;;;;;;;;;;5013327;28;20513;-67
2021/09/18 05:23:33;;;;;;;2.10;1.20;;;;;;;;;;5013372;28;20049;-68
2021/09/18 05:25:59;;;;;;;4.43;1.25;;;;;;;;;;5013567;28;20080;-68
2021/09/18 05:28:25;;;;;;;2.70;1.20;;;;;;;;;;5013255;28;20121;-67
2021/09/18 05:30:51;;;;;;;2.83;1.10;;;;;;;;;;5013362;28;20375;-67
2021/09/18 05:33:17;;;;;;;3.72;1.70;;;;;;;;;;5013440;28;20451;-67
2021/09/18 05:35:43;;;;;;;4.63;1.55;;;;;;;;;;5013320;28;20478;-67
2021/09/18 05:38:09;;;;;;;3.25;1.20;;;;;;;;;;5013055;28;20049;-67
2021/09/18 05:40:35;;;;;;;3.38;1.30;;;;;;;;;;5013123;28;20084;-67
2021/09/18 05:43:01;;;;;;;3.83;1.27;;;;;;;;;;5013125;28;20053;-71
2021/09/18 05:45:27;;;;;;;1.13;1.00;;;;;;;;;;5013199;28;20485;-67
2021/09/18 05:47:53;;;;;;;1.88;1.23;;;;;;;;;;5012857;28;20475;-67
2021/09/18 05:50:19;;;;;;;4.57;1.20;;;;;;;;;;5013040;28;20038;-68
2021/09/18 05:52:45;;;;;;;3.08;1.02;;;;;;;;;;5012840;28;20038;-67
2021/09/18 05:55:11;;;;;;;1.38;1.10;;;;;;;;;;5012413;28;20034;-67
2021/09/18 05:57:37;;;;;;;3.53;1.05;;;;;;;;;;5013026;28;20061;-69
2021/09/18 06:00:04;;;;;;;2.60;1.20;;;;;;;;;;5012498;28;20084;-67
2021/09/18 06:02:30;;;;;;;3.88;1.13;;;;;;;;;;5012632;28;20042;-68
2021/09/18 06:04:56;;;;;;;2.25;1.20;;;;;;;;;;5013271;28;20126;-67
2021/09/18 06:07:22;;;;;;;1.42;1.08;;;;;;;;;;5013068;28;20087;-67
2021/09/18 06:09:48;;;;;;;1.63;1.00;;;;;;;;;;5015886;28;20042;-67
2021/09/18 06:12:14;;;;;;;1.95;1.25;;;;;;;;;;5015952;28;20083;-68
2021/09/18 06:14:40;;;;;;;1.80;1.20;;;;;;;;;;5016220;28;20121;-67
2021/09/18 06:17:06;;;;;;;5.65;1.20;;;;;;;;;;5016473;28;20131;-68
2021/09/18 06:19:32;;;;;;;2.97;1.23;;;;;;;;;;5016154;28;20470;-68
2021/09/18 06:21:58;;;;;;;1.55;1.13;;;;;;;;;;5015633;28;20069;-69
2021/09/18 06:24:24;;;;;;;2.35;1.40;;;;;;;;;;5015968;28;20111;-68
2021/09/18 06:26:50;;;;;;;2.50;1.30;;;;;;;;;;5015816;28;20504;-68
2021/09/18 06:29:17;;;;;;;3.30;1.17;;;;;;;;;;5015709;28;20038;-68
2021/09/18 06:31:43;;;;;;;4.65;1.20;;;;;;;;;;5015303;28;20041;-69
2021/09/18 06:34:09;;;;;;;2.33;1.20;;;;;;;;;;5015117;28;20026;-69
2021/09/18 06:36:35;;;;;;;1.20;1.10;;;;;;;;;;5015286;28;20506;-69
2021/09/18 06:39:01;;;;;;;1.85;1.15;;;;;;;;;;5015554;28;20026;-67
2021/09/18 06:41:27;;;;;;;2.58;1.27;;;;;;;;;;5015713;28;20073;-67
2021/09/18 06:43:53;;;;;;;1.55;1.17;;;;;;;;;;5016022;28;20097;-68
2021/09/18 06:46:19;;;;;;;1.85;1.40;;;;;;;;;;5015682;28;20112;-69
2021/09/18 06:48:45;;;;;;;3.13;1.33;;;;;;;;;;4998049;28;20497;-67
2021/09/18 06:51:11;;;;;;;2.75;1.48;;;;;;;;;;5015424;28;20034;-69
2021/09/18 06:53:37;;;;;;;1.65;1.25;;;;;;;;;;5015561;28;20029;-69
2021/09/18 06:56:03;;;;;;;4.03;1.17;;;;;;;;;;5015631;28;20061;-69
2021/09/18 06:58:29;;;;;;;2.05;1.27;;;;;;;;;;5015550;28;20045;-69
2021/09/18 07:00:55;;;;;;;5.45;1.40;;;;;;;;;;5015310;28;20091;-70
2021/09/18 07:03:23;;;;;;;1.55;1.13;;;;;;;;;;5015214;28;20038;-70
2021/09/18 07:05:49;;;;;;;5.20;1.13;;;;;;;;;;5015421;28;20109;-69
2021/09/18 07:08:15;;;;;;;3.50;1.45;;;;;;;;;;5015443;28;20381;-69
2021/09/18 07:10:41;;;;;;;2.08;1.50;;;;;;;;;;5015047;28;20586;-69
2021/09/18 07:13:07;;;;;;;2.10;1.30;;;;;;;;;;5015076;28;20382;-71
2021/09/18 07:15:34;;;;;;;2.10;1.52;;;;;;;;;;5015247;28;20394;-69
2021/09/18 07:18:00;;;;;;;1.60;1.40;;;;;;;;;;5014970;28;20029;-69
2021/09/18 07:20:26;;;;;;;4.45;1.48;;;;;;;;;;5015015;28;20114;-69
2021/09/18 07:22:52;;;;;;;1.85;1.08;;;;;;;;;;5015218;28;20088;-69
2021/09/18 07:25:18;;;;;;;2.75;1.48;;;;;;;;;;5015121;28;20034;-70
2021/09/18 07:27:44;;;;;;;1.83;1.50;;;;;;;;;;5014744;28;20066;-70
2021/09/18 07:30:10;;;;;;;6.82;1.45;;;;;;;;;;4997348;28;20402;-69
2021/09/18 07:32:36;;;;;;;1.88;1.17;;;;;;;;;;5015116;28;20033;-69
2021/09/18 07:35:06;;;;;;;5.03;1.40;;;;;;;;;;5015026;28;20038;-69
2021/09/18 07:37:33;;;;;;;6.03;1.38;;;;;;;;;;5014970;28;20034;-70
2021/09/18 07:39:59;;;;;;;3.33;1.30;;;;;;;;;;5014374;28;20057;-69
2021/09/18 07:42:25;;;;;;;1.35;1.20;;;;;;;;;;5015052;28;20037;-69
2021/09/18 07:44:51;;;;;;;1.90;1.33;;;;;;;;;;5014853;28;20046;-69
2021/09/18 07:47:17;;;;;;;1.42;1.27;;;;;;;;;;5014789;28;20030;-69
2021/09/18 07:49:43;;;;;;;1.83;1.40;;;;;;;;;;5014580;28;20117;-68
2021/09/18 07:52:09;;;;;;;2.00;1.80;;;;;;;;;;5014659;28;20112;-69
2021/09/18 07:54:35;;;;;;;2.08;1.08;;;;;;;;;;5014286;28;20089;-69
2021/09/18 07:57:01;;;;;;;2.53;1.40;;;;;;;;;;5014407;28;20042;-69
2021/09/18 07:59:27;;;;;;;1.23;1.13;;;;;;;;;;5014307;28;20037;-69
2021/09/18 08:01:53;;;;;;;6.70;1.67;;;;;;;;;;5014235;28;20030;-69
2021/09/18 08:04:19;;;;;;;1.80;1.23;;;;;;;;;;5014288;28;20042;-69
2021/09/18 08:06:45;;;;;;;2.22;1.50;;;;;;;;;;5014182;28;20052;-70
2021/09/18 08:09:11;;;;;;;2.58;1.55;;;;;;;;;;5014160;28;20092;-69
2021/09/18 08:11:37;;;;;;;1.42;1.33;;;;;;;;;;5014095;28;20053;-69
2021/09/18 08:14:04;;;;;;;1.40;1.17;;;;;;;;;;5014046;28;20466;-70
2021/09/18 08:16:30;;;;;;;5.25;1.40;;;;;;;;;;5014046;28;20034;-69
2021/09/18 08:18:56;;;;;;;1.85;1.30;;;;;;;;;;5014170;28;20065;-69
2021/09/18 08:21:23;;;;;;;6.38;1.40;;;;;;;;;;5013966;28;20037;-69
2021/09/18 08:23:49;;;;;;;2.03;1.30;;;;;;;;;;5014091;28;20045;-69
2021/09/18 08:26:15;;;;;;;4.53;1.08;;;;;;;;;;5014036;28;20105;-69
2021/09/18 08:28:41;;;;;;;2.05;1.60;;;;;;;;;;5013967;28;20037;-68
2021/09/18 08:31:07;;;;;;;1.23;1.02;;;;;;;;;;5013071;28;20089;-69
2021/09/18 08:33:33;;;;;;;1.30;1.20;;;;;;;;;;5014066;28;20037;-70
2021/09/18 08:35:59;;;;;;;3.53;1.20;;;;;;;;;;5013969;28;20399;-69
2021/09/18 08:38:26;;;;;;;2.20;1.20;;;;;;;;;;5013903;28;20046;-69
2021/09/18 08:40:54;;;;;;;3.72;1.00;;;;;;;;;;5013428;28;20108;-69
2021/09/18 08:43:20;;;;;;;2.50;1.35;;;;;;;;;;5013414;28;20042;-69
2021/09/18 08:45:47;;;;;;;2.05;1.00;;;;;;;;;;5013767;28;20092;-69
2021/09/18 08:48:13;;;;;;;1.27;1.10;;;;;;;;;;5013716;28;20034;-70
2021/09/18 08:50:39;;;;;;;3.53;1.23;;;;;;;;;;5013391;28;20041;-69
2021/09/18 08:53:06;;;;;;;2.75;1.25;;;;;;;;;;5013752;28;20042;-69
2021/09/18 08:55:32;;;;;;;1.27;1.17;;;;;;;;;;5013423;28;20085;-69
2021/09/18 08:57:58;;;;;;;1.98;1.40;;;;;;;;;;5013534;28;20100;-69
2021/09/18 09:00:33;;;;;;;6.03;1.42;;;;;;;;;;5013507;28;20030;-68
2021/09/18 09:03:01;;;;;;;2.00;1.55;;;;;;;;;;5013637;28;20042;-69
2021/09/18 09:05:31;;;;;;;1.58;1.35;;;;;;;;;;5013560;28;20034;-69
2021/09/18 09:08:27;;;;;;;2.05;1.30;;;;;;;;;;5013240;28;20042;-69
2021/09/18 09:10:53;;;;;;;2.15;1.52;;;;;;;;;;4996552;28;20069;-69
2021/09/18 09:13:23;;;;;;;1.65;1.40;;;;;;;;;;5013524;28;20387;-69
2021/09/18 09:15:51;;;;;;;2.78;1.27;;;;;;;;;;5013336;28;20030;-69
2021/09/18 09:18:17;;;;;;;2.03;1.20;;;;;;;;;;5013178;28;20037;-69
2021/09/18 09:20:43;;;;;;;1.63;1.33;;;;;;;;;;5013258;28;20062;-69
2021/09/18 09:23:22;;;;;;;1.45;1.35;;;;;;;;;;5013474;28;20187;-69
2021/09/18 09:25:51;;;;;;;2.17;1.45;;;;;;;;;;5013366;28;20038;-69
2021/09/18 09:28:29;;;;;;;1.50;1.40;;;;;;;;;;5013491;28;20355;-69
2021/09/18 09:31:01;;;;;;;1.88;1.40;;;;;;;;;;5013133;28;20080;-69
2021/09/18 09:33:28;;;;;;;2.83;1.45;;;;;;;;;;5013331;28;20029;-69
2021/09/18 09:35:54;;;;;;;2.13;1.30;;;;;;;;;;5013233;28;20049;-69
2021/09/18 09:38:20;;;;;;;1.50;1.40;;;;;;;;;;5013474;28;20037;-69
2021/09/18 09:40:48;;;;;;;2.35;1.45;;;;;;;;;;5013195;28;20072;-70
2021/09/18 09:43:16;;;;;;;1.88;1.15;;;;;;;;;;5015503;28;20069;-70
2021/09/18 09:45:42;;;;;;;2.47;1.38;;;;;;;;;;5016740;28;20034;-69
2021/09/18 09:48:08;;;;;;;1.90;1.40;;;;;;;;;;5017106;28;20453;-69
2021/09/18 09:50:35;;;;;;;2.40;1.23;;;;;;;;;;5016748;28;20045;-69
2021/09/18 09:53:02;;;;;;;2.42;1.30;;;;;;;;;;5016627;28;20038;-69
2021/09/18 09:55:28;;;;;;;2.58;1.25;;;;;;;;;;5016837;28;20034;-69
2021/09/18 09:58:02;;;;;;;1.50;1.13;;;;;;;;;;5016599;28;20042;-69
2021/09/18 10:00:37;;;;;;;2.03;1.50;;;;;;;;;;5016476;28;20510;-69
2021/09/18 10:03:03;;;;;;;1.75;1.20;;;;;;;;;;5016725;28;20133;-69
2021/09/18 10:05:29;;;;;;;2.17;1.30;;;;;;;;;;5016626;28;20041;-69
2021/09/18 10:07:56;;;;;;;1.90;1.30;;;;;;;;;;4998975;28;20128;-69
2021/09/18 10:10:22;;;;;;;1.92;1.35;;;;;;;;;;5016103;28;20113;-69
2021/09/18 10:12:49;;;;;;;3.72;1.48;;;;;;;;;;5016366;28;20450;-69
2021/09/18 10:15:15;;;;;;;2.55;1.20;;;;;;;;;;5016286;28;20038;-69
2021/09/18 10:17:47;;;;;;;1.23;1.08;;;;;;;;;;5016397;28;20360;-70
2021/09/18 10:25:33;;;;;;;2.08;1.40;;;;;;;;;;5016477;28;20113;-69
2021/09/18 10:28:09;;;;;;;2.30;1.15;;;;;;;;;;5016094;28;20033;-69
2021/09/18 10:30:46;;;;;;;1.60;1.50;;;;;;;;;;5016079;28;20048;-69
2021/09/18 10:33:30;;;;;;;1.83;1.15;;;;;;;;;;5016627;28;20033;-69
2021/09/18 10:35:58;;;;;;;3.90;1.30;;;;;;;;;;5016527;28;20041;-69
2021/09/18 10:38:25;;;;;;;2.17;1.52;;;;;;;;;;5016075;28;20109;-69
2021/09/18 10:40:59;;;;;;;2.88;1.45;;;;;;;;;;5016020;28;20116;-69
2021/09/18 10:43:30;;;;;;;3.97;1.40;;;;;;;;;;5015751;28;20054;-69
2021/09/18 10:45:56;;;;;;;1.83;1.48;;;;;;;;;;5015733;28;20390;-69
2021/09/18 10:48:34;;;;;;;2.97;1.48;;;;;;;;;;5015813;28;20045;-70
2021/09/18 10:51:01;;;;;;;1.55;1.20;;;;;;;;;;5015619;28;20076;-70
2021/09/18 10:53:26;;;;;;;2.78;1.60;;;24.10;51.50;;;;;;5015280;28;20034;-71
2021/09/18 10:55:58;;;;;;;1.80;1.38;;;24.00;52.40;;;;;;5015247;28;20038;-71
2021/09/18 10:58:25;;;;;;;3.33;1.93;;;24.10;52.10;;;;;;5015423;28;20057;-70
2021/09/18 11:00:57;;;;;;;2.15;1.55;;;24.20;52.20;;;;;;5015740;28;20364;-70
2021/09/18 11:03:39;;;;;;;1.77;1.40;;;24.20;51.60;;;;;;5015486;28;20042;-71
2021/09/18 11:06:05;;;;;;;1.10;1.00;;;24.30;52.10;;;;;;5015219;28;20034;-70
2021/09/18 11:08:35;;;;;;;2.75;1.33;;;24.30;50.40;;;;;;5015382;28;20038;-70
2021/09/18 11:11:11;;;;;;;1.67;1.42;;;24.20;50.60;;;;;;4997623;28;20398;-71
2021/09/18 11:13:43;;;;;;;1.60;1.50;;;24.20;51.30;;;;;;5015326;28;20398;-71
2021/09/18 11:16:26;;;;;;;3.70;1.17;;;24.20;50.40;;;;;;5015173;28;20041;-71
2021/09/18 11:19:15;;;;;;;2.20;1.30;;;24.20;51.80;;;;;;5015116;28;20042;-70
2021/09/18 11:21:44;;;;;;;1.52;1.20;;;24.30;51.80;;;;;;5014908;28;20041;-70
2021/09/18 11:24:15;;;;;;;2.33;1.20;;;24.30;52.30;;;;;;5015005;28;20101;-70
2021/09/18 11:26:45;;;;;;;1.45;1.13;;;24.30;52.10;;;;;;5015121;28;20034;-70
2021/09/18 11:29:14;;;;;;;1.58;1.20;;;24.50;78.20;;;;;;5015042;28;20066;-70
2021/09/18 11:31:58;;;;;;;2.17;1.20;;;;;;;;;;5014900;28;20470;-70
2021/09/18 11:34:30;;;;;;;2.35;1.20;;;24.50;51.10;;;;;;5015121;28;20053;-70
2021/09/18 11:36:59;;;;;;;4.78;1.42;;;24.50;51.20;;;;;;5014447;28;20042;-70
2021/09/18 11:39:39;;;;;;;4.35;1.02;;;24.50;51.50;;;;;;5014890;28;20084;-69
2021/09/18 11:42:12;;;;;;;1.52;1.27;;;24.50;50.70;;;;;;5014709;28;20081;-69
2021/09/18 11:44:38;;;;;;;1.30;0.95;;;24.50;50.40;;;;;;5014373;28;20082;-71
2021/09/18 11:47:06;;;;;;;1.60;1.10;;;24.60;50.30;;;;;;5014759;28;20055;-71
2021/09/18 11:49:32;;;;;;;2.90;1.27;;;24.60;50.00;;;;;;5014461;28;20059;-69
2021/09/18 11:52:03;;;;;;;2.25;1.20;;;24.60;50.10;;;;;;4996518;28;20042;-69
2021/09/18 11:54:30;;;;;;;1.17;1.08;;;24.70;50.10;;;;;;5014119;28;20153;-69
2021/09/18 11:57:09;;;;;;;1.52;1.20;;;24.70;50.00;;;;;;5014382;28;20037;-69
2021/09/18 11:59:35;;;;;;;2.13;1.00;;;24.70;50.00;;;;;;5013959;28;20045;-69
2021/09/18 12:02:01;;;;;;;1.42;1.10;;;24.70;50.10;;;;;;5014033;28;20033;-70
2021/09/18 12:04:41;;;;;;;1.23;1.13;;;24.70;50.00;;;;;;5013991;28;20054;-69
2021/09/18 12:07:08;;;;;;;2.33;1.10;;;24.80;50.10;;;;;;5013028;28;20121;-69
2021/09/18 12:09:34;;;;;;;2.13;1.10;;;24.80;48.70;;;;;;5013925;28;20038;-69
2021/09/18 12:12:00;;;;;;;1.40;0.90;;;24.80;48.70;;;;;;5014379;28;20045;-70
2021/09/18 12:14:33;;;;;;;1.02;0.93;;;24.70;48.50;;;;;;5013520;28;20100;-69
2021/09/18 12:17:14;;;;;;;1.42;1.13;;;24.60;48.90;;;;;;5013575;28;20497;-70
2021/09/18 12:19:41;;;;;;;2.88;1.17;;;24.60;49.50;;;;;;5013507;28;20037;-69
2021/09/18 12:22:07;;;;;;;3.78;1.45;;;24.60;50.20;;;;;;5013569;28;20040;-70
2021/09/18 12:24:35;;;;;;;1.08;1.02;;;24.60;49.50;;;;;;5014065;28;20042;-70
2021/09/18 12:27:20;;;;;;;1.52;1.23;;;24.70;49.90;;;;;;5013971;28;20038;-70
2021/09/18 12:30:03;;;;;;;2.28;1.00;;;24.70;49.70;;;;;;5013551;28;20065;-70
2021/09/18 12:32:29;;;;;;;;;;;24.80;48.40;;;;;;5014761;28;20069;-70
2021/09/18 12:35:03;;;;;;;1.40;0.93;;;24.80;48.60;;;;;;5013978;28;19945;-70
2021/09/18 12:37:31;;;;;;;1.67;1.10;;;24.80;49.10;;;;;;5013375;28;20034;-70
2021/09/18 12:40:16;;;;;;;3.70;1.15;;;24.80;48.70;;;;;;5013124;28;20053;-70
2021/09/18 12:42:42;;;;;;;1.20;1.10;;;24.90;48.70;;;;;;5013841;28;20037;-69
2021/09/18 12:45:27;;;;;;;4.65;0.90;;;24.90;48.30;;;;;;5013618;28;20474;-70
2021/09/18 12:48:13;;;;;;;1.75;1.15;;;24.90;47.80;;;;;;5013726;28;20045;-69
2021/09/18 12:50:49;;;;;;;5.25;1.15;;;25.00;48.60;;;;;;5013069;28;20048;-70
2021/09/18 12:53:20;;;;;;;2.45;1.05;;;25.00;48.20;;;;;;5013215;28;20034;-69
2021/09/18 12:56:15;;;;;;;1.27;1.10;;;25.00;47.60;;;;;;5013589;28;20529;-69
2021/09/18 12:58:43;;;;;;;1.77;1.10;;;25.10;48.10;;;;;;5013589;28;20030;-70
2021/09/18 13:01:11;;;;;;;1.50;1.00;;;25.10;48.40;;;;;;4995561;28;20363;-69
2021/09/18 13:03:38;;;;;;;2.92;1.15;;;25.20;47.80;;;;;;5013086;28;20103;-70
2021/09/18 13:06:13;;;;;;;1.30;0.90;;;25.10;48.20;;;;;;5013446;28;20041;-70
2021/09/18 13:08:42;;;;;;;1.77;1.30;;;25.20;47.10;;;;;;5013396;28;20470;-69
2021/09/18 13:11:35;;;;;;;1.10;0.95;;;25.20;47.40;;;;;;5013051;28;20046;-70
2021/09/18 13:14:09;;;;;;;2.75;1.20;;;25.20;47.30;;;;;;5013545;28;20038;-68
2021/09/18 13:16:35;;;;;;;2.88;1.08;;;25.20;47.00;;;;;;5013242;28;20033;-68
2021/09/18 13:19:02;;;;;;;3.05;1.10;;;25.20;46.60;;;;;;5017606;28;20033;-69
2021/09/18 13:21:28;;;;;;;1.40;1.00;;;25.20;47.00;;;;;;5017339;28;20074;-69
2021/09/18 13:23:53;;;;;;;1.52;0.90;;;25.20;47.70;;;;;;5016929;28;20486;-69
2021/09/18 13:26:19;;;;;;;2.22;1.15;;;25.20;47.90;;;;;;5017440;28;20033;-69
2021/09/18 13:28:48;;;;;;;1.30;1.10;;;25.30;46.40;;;;;;5017682;28;20393;-69
2021/09/18 13:31:14;;;;;;;2.22;1.30;;;25.20;47.10;;;;;;5016618;28;20038;-69
2021/09/18 13:33:40;;;;;;;1.38;1.00;;;25.20;47.80;;;;;;5017294;28;20034;-68
2021/09/18 13:36:05;;;;;;;1.77;1.00;;;25.30;48.00;;;;;;5017209;28;20038;-68
2021/09/18 13:38:31;;;;;;;2.92;1.17;;;25.20;47.40;;;;;;5016757;28;20433;-70
2021/09/18 13:40:58;;;;;;;2.15;1.17;;;25.20;46.50;;;;;;5016606;28;20029;-68
2021/09/18 13:43:24;;;;;;;1.35;0.90;;;25.20;47.20;;;;;;5016463;28;20096;-67
2021/09/18 13:45:49;;;;;;;2.65;0.98;;;25.20;47.20;;;;;;5016685;28;20038;-68
2021/09/18 13:48:15;;;;;;;5.57;1.20;;;25.30;47.40;;;;;;5016986;28;20038;-68
2021/09/18 13:50:42;;;;;;;1.00;0.90;;;25.30;47.40;;;;;;5016956;28;20034;-68
2021/09/18 13:53:08;;;;;;;3.97;1.02;;;25.30;47.90;;;;;;5016598;28;20022;-69
2021/09/18 13:55:35;;;;;;;1.17;0.98;;;25.30;47.10;;;;;;5016537;28;20462;-70
2021/09/18 13:58:00;;;;;;;1.65;1.10;;;25.30;46.70;;;;;;5016705;28;20494;-72
2021/09/18 14:00:26;;;;;;;3.60;0.93;;;25.30;46.70;;;;;;5016383;28;20036;-75
2021/09/18 14:02:52;;;;;;;4.85;1.02;;;25.30;46.70;;;;;;5016287;28;20037;-78
2021/09/18 14:05:18;;;;;;;1.75;1.02;;;25.30;46.80;;;;;;5016349;28;20474;-70
2021/09/18 14:07:44;;;;;;;2.97;1.00;;;25.40;46.90;;;;;;5015811;28;20029;-70
2021/09/18 14:10:10;;;;;;;0.90;0.90;;;25.30;46.60;;;;;;5016253;28;20054;-71
2021/09/18 14:12:37;;;;;;;1.15;1.05;;;25.30;46.50;;;;;;5016019;28;20389;-71
2021/09/18 14:15:04;;;;;;;3.63;1.27;;;25.30;46.80;;;;;;5015875;28;20363;-71
2021/09/18 14:17:29;;;;;;;1.52;0.95;;;25.30;46.60;;;;;;5016675;28;20041;-72
2021/09/18 14:19:55;;;;;;;1.33;1.00;;;25.30;46.10;;;;;;5016037;28;20471;-72
2021/09/18 14:22:21;;;;;;;1.10;1.00;;;25.20;46.30;;;;;;5016007;28;20057;-71